Time;durP1;ratioP1;P1;durP2;ratioP2;P2;SDS_P1;SDS_P2;PMS_P1;PMS_P2;Temp;Humidity;BMP_temperature;BMP_pressure;BME280_temperature;BME280_humidity;BME280_pressure;Samples;Min_cycle;Max_cycle;Signal;HPM_P1;HPM_P2
2022/11/27 00:01:16;;;;;;;;;;;;;;;;;;5048293;28;1318;-67
2022/11/27 00:03:41;;;;;;;;;;;;;;;;;;5032708;28;1906;-67
2022/11/27 00:06:10;;;;;;;;;;;;;;;;;;5032876;28;904;-67
2022/11/27 00:08:35;;;;;;;;;;;;;;;;;;5032508;28;975;-67
2022/11/27 00:11:12;;;;;;;;;;;;;;;;;;5033161;28;862;-67
2022/11/27 00:13:37;;;;;;;;;;;;;;;;;;5032475;28;665;-67
2022/11/27 00:16:04;;;;;;;;;;;;;;;;;;5032587;28;1059;-67
2022/11/27 00:18:29;;;;;;;;;;;;;;;;;;5032105;28;888;-67
2022/11/27 00:20:54;;;;;;;;;;;;;;;;;;5032269;28;809;-66
2022/11/27 00:23:20;;;;;;;;;;;;;;;;;;5032482;28;1906;-66
2022/11/27 00:25:49;;;;;;;;;;;;;;;;;;5030633;28;999;-67
2022/11/27 00:28:14;;;;;;;;;;;;;;;;;;5032587;28;1003;-67
2022/11/27 00:30:39;;;;;;;;;;;;;;;;;;5032410;28;983;-67
2022/11/27 00:33:05;;;;;;;;;;;;;;;;;;5030354;28;857;-67
2022/11/27 00:35:30;;;;;;;;;;;;;;;;;;5030450;28;1299;-67
2022/11/27 00:37:55;;;;;;;;;;;;;;;;;;5032258;28;825;-67
2022/11/27 00:40:20;;;;;;;;;;;;;;;;;;5032421;28;968;-66
2022/11/27 00:42:46;;;;;;;;;;;;;;;;;;5031904;28;1909;-67
2022/11/27 00:45:11;;;;;;;;;;;;;;;;;;5033284;28;872;-67
2022/11/27 00:47:36;;;;;;;;;;;;;;;;;;5031696;28;1161;-67
2022/11/27 00:50:03;;;;;;;;;;;;;;;;;;5032646;28;940;-67
2022/11/27 00:52:28;;;;;;;;;;;;;;;;;;5032643;28;943;-67
2022/11/27 00:54:53;;;;;;;;;;;;;;;;;;5033335;28;975;-67
2022/11/27 00:57:18;;;;;;;;;;;;;;;;;;5032480;28;987;-67
2022/11/27 00:59:44;;;;;;;;;;;;;;;;;;5031440;28;1302;-66
2022/11/27 01:02:09;;;;;;;;;;;;;;;;;;5031938;28;1894;-67
2022/11/27 01:04:34;;;;;;;;;;;;;;;;;;5031357;28;1208;-67
2022/11/27 01:06:59;;;;;;;;;;;;;;;;;;5031816;28;826;-67
2022/11/27 01:09:25;;;;;;;;;;;;;;;;;;5030069;28;1155;-67
2022/11/27 01:11:50;;;;;;;;;;;;;;;;;;5031797;28;806;-67
2022/11/27 01:14:16;;;;;;;;;;;;;;;;;;5030794;28;892;-67
2022/11/27 01:16:42;;;;;;;;;;;;;;;;;;5031447;28;876;-67
2022/11/27 01:19:08;;;;;;;;;;;;;;;;;;5030131;28;1102;-67
2022/11/27 01:21:34;;;;;;;;;;;;;;;;;;5031497;28;790;-67
2022/11/27 01:23:59;;;;;;;;;;;;;;;;;;5030602;28;1961;-67
2022/11/27 01:26:25;;;;;;;;;;;;;;;;;;5031379;28;825;-67
2022/11/27 01:28:51;;;;;;;;;;;;;;;;;;5030096;28;939;-67
2022/11/27 01:31:18;;;;;;;;;;;;;;;;;;5029967;28;924;-67
2022/11/27 01:33:44;;;;;;;;;;;;;;;;;;5030652;28;857;-67
2022/11/27 01:36:10;;;;;;;;;;;;;;;;;;5046166;28;1310;-67
2022/11/27 01:38:36;;;;;;;;;;;;;;;;;;5045872;28;1191;-67
2022/11/27 01:41:04;;;;;;;;;;;;;;;;;;5030671;28;893;-67
2022/11/27 01:43:44;;;;;;;;;;;;;;;;;;5030252;28;1918;-67
2022/11/27 01:46:22;;;;;;;;;;;;;;;;;;5029548;28;1141;-66
2022/11/27 01:48:47;;;;;;;;;;;;;;;;;;5030320;28;884;-66
2022/11/27 01:51:13;;;;;;;;;;;;;;;;;;5045843;28;1251;-67
2022/11/27 01:53:38;;;;;;;;;;;;;;;;;;5029070;28;1299;-67
2022/11/27 01:56:04;;;;;;;;;;;;;;;;;;5029165;28;1156;-66
2022/11/27 01:58:30;;;;;;;;;;;;;;;;;;5028984;28;1192;-67
2022/11/27 02:00:55;;;;;;;;;;;;;;;;;;5045785;28;1231;-67
2022/11/27 02:03:21;;;;;;;;;;;;;;;;;;5028973;28;1942;-67
2022/11/27 02:05:46;;;;;;;;;;;;;;;;;;5045451;28;1155;-67
2022/11/27 02:08:13;;;;;;;;;;;;;;;;;;5029087;28;1272;-67
2022/11/27 02:10:41;;;;;;;;;;;;;;;;;;5030952;28;909;-67
2022/11/27 02:13:19;;;;;;;;;;;;;;;;;;5031178;28;758;-67
2022/11/27 02:16:03;;;;;;;;;;;;;;;;;;5046762;28;1164;-67
2022/11/27 02:18:32;;;;;;;;;;;;;;;;;;5029548;28;1235;-67
2022/11/27 02:21:06;;;;;;;;;;;;;;;;;;5030766;28;868;-67
2022/11/27 02:23:31;;;;;;;;;;;;;;;;;;5029680;28;1906;-67
2022/11/27 02:25:59;;;;;;;;;;;;;;;;;;5030297;28;892;-66
2022/11/27 02:28:25;;;;;;;;;;;;;;;;;;5029548;28;840;-67
2022/11/27 02:31:02;;;;;;;;;;;;;;;;;;5028920;28;1220;-67
2022/11/27 02:33:29;;;;;;;;;;;;;;;;;;5028375;28;1156;-67
2022/11/27 02:35:59;;;;;;;;;;;;;;;;;;5030577;28;837;-66
2022/11/27 02:38:28;;;;;;;;;;;;;;;;;;5029443;28;987;-67
2022/11/27 02:40:57;;;;;;;;;;;;;;;;;;5045760;28;1295;-66
2022/11/27 02:43:26;;;;;;;;;;;;;;;;;;5029653;28;1906;-67
2022/11/27 02:45:51;;;;;;;;;;;;;;;;;;5045454;28;1380;-67
2022/11/27 02:48:20;;;;;;;;;;;;;;;;;;5029729;28;1055;-67
2022/11/27 02:50:46;;;;;;;;;;;;;;;;;;5029359;28;805;-67
2022/11/27 02:53:18;;;;;;;;;;;;;;;;;;5029937;28;1039;-67
2022/11/27 02:55:44;;;;;;;;;;;;;;;;;;5030308;28;876;-67
2022/11/27 02:58:14;;;;;;;;;;;;;;;;;;5034455;28;960;-67
2022/11/27 03:00:42;;;;;;;;;;;;;;;;;;5032666;28;1236;-67
2022/11/27 03:03:08;;;;;;;;;;;;;;;;;;5032560;28;1922;-67
2022/11/27 03:05:36;;;;;;;;;;;;;;;;;;5033344;28;1248;-67
2022/11/27 03:08:01;;;;;;;;;;;;;;;;;;5033820;28;877;-67
2022/11/27 03:10:33;;;;;;;;;;;;;;;;;;5032292;28;1272;-67
2022/11/27 03:12:58;;;;;;;;;;;;;;;;;;5034200;28;857;-67
2022/11/27 03:15:25;;;;;;;;;;;;;;;;;;5033484;28;821;-67
2022/11/27 03:17:55;;;;;;;;;;;;;;;;;;5032870;28;1188;-67
2022/11/27 03:20:23;;;;;;;;;;;;;;;;;;5033424;28;845;-67
2022/11/27 03:22:49;;;;;;;;;;;;;;;;;;5032598;28;1910;-67
2022/11/27 03:25:15;;;;;;;;;;;;;;;;;;5031364;28;1366;-67
2022/11/27 03:27:47;;;;;;;;;;;;;;;;;;5051644;28;1255;-67
2022/11/27 03:30:13;;;;;;;;;;;;;;;;;;5054900;28;1219;-67
2022/11/27 03:32:38;;;;;;;;;;;;;;;;;;5015382;28;1247;-67
2022/11/27 03:35:06;;;;;;;;;;;;;;;;;;5020337;28;1220;-67
2022/11/27 03:37:32;;;;;;;;;;;;;;;;;;5033051;28;917;-67
2022/11/27 03:39:57;;;;;;;;;;;;;;;;;;5016685;28;1224;-67
2022/11/27 03:42:28;;;;;;;;;;;;;;;;;;5033451;28;1906;-67
2022/11/27 03:45:07;;;;;;;;;;;;;;;;;;5034152;28;984;-67
2022/11/27 03:48:10;;;;;;;;;;;;;;;;;;5033173;28;963;-67
2022/11/27 03:50:42;;;;;;;;;;;;;;;;;;4932608;29;1144;-67
2022/11/27 03:53:26;;;;;;;;;;;;;;;;;;4933095;29;1527;-67
2022/11/27 03:55:51;;;;;;;;;;;;;;;;;;4995280;28;938;-67
2022/11/27 03:58:19;;;;;;;;;;;;;;;;;;5032687;28;853;-67
2022/11/27 04:00:47;;;;;;;;;;;;;;;;;;5032451;28;925;-66
2022/11/27 04:03:12;;;;;;;;;;;;;;;;;;5032699;28;1949;-67
2022/11/27 04:05:38;;;;;;;;;;;;;;;;;;5032700;28;1240;-66
2022/11/27 04:08:04;;;;;;;;;;;;;;;;;;5013987;28;1284;-67
2022/11/27 04:10:29;;;;;;;;;;;;;;;;;;5014651;28;1250;-67
2022/11/27 04:12:55;;;;;;;;;;;;;;;;;;5015201;28;841;-67
2022/11/27 04:15:20;;;;;;;;;;;;;;;;;;5014559;28;1223;-67
2022/11/27 04:17:45;;;;;;;;;;;;;;;;;;5014538;28;892;-67
2022/11/27 04:20:14;;;;;;;;;;;;;;;;;;5014721;28;1299;-67
2022/11/27 04:22:39;;;;;;;;;;;;;;;;;;5030739;28;1906;-67
2022/11/27 04:25:04;;;;;;;;;;;;;;;;;;5014762;28;1216;-67
2022/11/27 04:27:30;;;;;;;;;;;;;;;;;;5030469;28;1304;-67
2022/11/27 04:29:55;;;;;;;;;;;;;;;;;;5014534;28;1291;-67
2022/11/27 04:32:20;;;;;;;;;;;;;;;;;;5032434;28;853;-67
2022/11/27 04:34:45;;;;;;;;;;;;;;;;;;5031875;28;908;-67
2022/11/27 04:37:11;;;;;;;;;;;;;;;;;;5014435;28;1299;-67
2022/11/27 04:39:36;;;;;;;;;;;;;;;;;;5014157;28;1131;-67
2022/11/27 04:42:01;;;;;;;;;;;;;;;;;;5032515;28;1951;-67
2022/11/27 04:44:26;;;;;;;;;;;;;;;;;;5031567;28;949;-67
2022/11/27 04:46:52;;;;;;;;;;;;;;;;;;5014382;28;936;-67
2022/11/27 04:49:17;;;;;;;;;;;;;;;;;;5013988;28;893;-66
2022/11/27 04:51:42;;;;;;;;;;;;;;;;;;5013829;28;1245;-67
2022/11/27 04:54:08;;;;;;;;;;;;;;;;;;5014250;28;869;-67
2022/11/27 04:56:33;;;;;;;;;;;;;;;;;;5013217;28;1261;-67
2022/11/27 04:58:58;;;;;;;;;;;;;;;;;;5031829;28;884;-66
2022/11/27 05:01:24;;;;;;;;;;;;;;;;;;5032333;28;830;-66
2022/11/27 05:03:49;;;;;;;;;;;;;;;;;;5032581;28;1963;-66
2022/11/27 05:06:14;;;;;;;;;;;;;;;;;;5014708;28;1125;-66
2022/11/27 05:08:39;;;;;;;;;;;;;;;;;;5032397;28;932;-67
2022/11/27 05:11:06;;;;;;;;;;;;;;;;;;5032600;28;822;-66
2022/11/27 05:13:31;;;;;;;;;;;;;;;;;;5031616;28;947;-66
2022/11/27 05:15:57;;;;;;;;;;;;;;;;;;5031753;28;920;-66
2022/11/27 05:18:22;;;;;;;;;;;;;;;;;;5013276;28;1108;-67
2022/11/27 05:20:54;;;;;;;;;;;;;;;;;;5029559;28;1177;-66
2022/11/27 05:23:19;;;;;;;;;;;;;;;;;;5028852;28;1910;-66
2022/11/27 05:25:45;;;;;;;;;;;;;;;;;;5014381;28;1228;-67
2022/11/27 05:28:10;;;;;;;;;;;;;;;;;;5050363;28;1177;-66
2022/11/27 05:30:35;;;;;;;;;;;;;;;;;;5036991;28;1220;-67
2022/11/27 05:33:00;;;;;;;;;;;;;;;;;;5043194;28;1169;-67
2022/11/27 05:35:26;;;;;;;;;;;;;;;;;;5067797;28;1113;-66
2022/11/27 05:37:51;;;;;;;;;;;;;;;;;;5018402;28;1184;-66
2022/11/27 05:40:16;;;;;;;;;;;;;;;;;;5034337;28;1232;-67
2022/11/27 05:42:41;;;;;;;;;;;;;;;;;;5052490;28;1980;-67
2022/11/27 05:45:07;;;;;;;;;;;;;;;;;;5071181;28;924;-67
2022/11/27 05:47:32;;;;;;;;;;;;;;;;;;5052337;28;1188;-66
2022/11/27 05:49:57;;;;;;;;;;;;;;;;;;5070811;28;947;-67
2022/11/27 05:52:23;;;;;;;;;;;;;;;;;;5052505;28;980;-66
2022/11/27 05:54:48;;;;;;;;;;;;;;;;;;5070437;28;864;-67
2022/11/27 05:57:13;;;;;;;;;;;;;;;;;;5070406;28;992;-67
2022/11/27 05:59:38;;;;;;;;;;;;;;;;;;5052275;28;1066;-67
2022/11/27 06:02:04;;;;;;;;;;;;;;;;;;5070499;28;1961;-66
2022/11/27 06:04:31;;;;;;;;;;;;;;;;;;5051614;28;1176;-67
2022/11/27 06:06:56;;;;;;;;;;;;;;;;;;5070835;28;971;-66
2022/11/27 06:09:22;;;;;;;;;;;;;;;;;;5070314;28;912;-67
2022/11/27 06:11:47;;;;;;;;;;;;;;;;;;5070229;28;999;-66
2022/11/27 06:14:12;;;;;;;;;;;;;;;;;;5070523;28;873;-67
2022/11/27 06:16:38;;;;;;;;;;;;;;;;;;5070096;28;804;-66
2022/11/27 06:19:03;;;;;;;;;;;;;;;;;;5070691;28;829;-66
2022/11/27 06:21:28;;;;;;;;;;;;;;;;;;5069820;28;1052;-66
2022/11/27 06:23:54;;;;;;;;;;;;;;;;;;5052569;28;1922;-67
2022/11/27 06:26:24;;;;;;;;;;;;;;;;;;5052405;28;1215;-66
2022/11/27 06:28:50;;;;;;;;;;;;;;;;;;5053346;28;1214;-66
2022/11/27 06:31:16;;;;;;;;;;;;;;;;;;5052351;28;1221;-66
2022/11/27 06:33:42;;;;;;;;;;;;;;;;;;5071259;28;924;-67
2022/11/27 06:36:08;;;;;;;;;;;;;;;;;;5053507;28;1318;-66
2022/11/27 06:38:33;;;;;;;;;;;;;;;;;;5070109;28;880;-66
2022/11/27 06:41:06;;;;;;;;;;;;;;;;;;5070573;28;897;-66
2022/11/27 06:43:31;;;;;;;;;;;;;;;;;;5069384;28;1909;-66
2022/11/27 06:45:57;;;;;;;;;;;;;;;;;;5068955;28;1176;-66
2022/11/27 06:48:23;;;;;;;;;;;;;;;;;;5028626;28;1243;-66
2022/11/27 06:50:48;;;;;;;;;;;;;;;;;;5041533;28;1259;-66
2022/11/27 06:53:13;;;;;;;;;;;;;;;;;;5045604;28;1334;-66
2022/11/27 06:55:39;;;;;;;;;;;;;;;;;;5029583;28;873;-66
2022/11/27 06:58:04;;;;;;;;;;;;;;;;;;5030342;28;932;-66
2022/11/27 07:00:29;;;;;;;;;;;;;;;;;;5029216;28;913;-67
2022/11/27 07:02:54;;;;;;;;;;;;;;;;;;5030128;28;1971;-67
2022/11/27 07:05:20;;;;;;;;;;;;;;;;;;5028424;28;1347;-66
2022/11/27 07:07:45;;;;;;;;;;;;;;;;;;5027792;28;1371;-66
2022/11/27 07:10:11;;;;;;;;;;;;;;;;;;5029178;28;1304;-66
2022/11/27 07:12:36;;;;;;;;;;;;;;;;;;5029130;28;872;-67
2022/11/27 07:15:01;;;;;;;;;;;;;;;;;;5028870;28;908;-66
2022/11/27 07:17:27;;;;;;;;;;;;;;;;;;5028308;28;920;-66
2022/11/27 07:19:52;;;;;;;;;;;;;;;;;;5028054;28;1206;-67
2022/11/27 07:22:17;;;;;;;;;;;;;;;;;;5029680;28;1906;-66
2022/11/27 07:24:43;;;;;;;;;;;;;;;;;;5029427;28;980;-66
2022/11/27 07:27:08;;;;;;;;;;;;;;;;;;5028356;28;1228;-68
2022/11/27 07:29:33;;;;;;;;;;;;;;;;;;5027371;28;1357;-66
2022/11/27 07:31:58;;;;;;;;;;;;;;;;;;5028581;28;857;-66
2022/11/27 07:34:24;;;;;;;;;;;;;;;;;;5027819;28;1176;-66
2022/11/27 07:36:49;;;;;;;;;;;;;;;;;;5027860;28;1075;-67
2022/11/27 07:39:15;;;;;;;;;;;;;;;;;;5029471;28;840;-67
2022/11/27 07:41:40;;;;;;;;;;;;;;;;;;5028303;28;1299;-67
2022/11/27 07:44:06;;;;;;;;;;;;;;;;;;5032964;28;1902;-67
2022/11/27 07:46:31;;;;;;;;;;;;;;;;;;5032519;28;1049;-66
2022/11/27 07:48:57;;;;;;;;;;;;;;;;;;5033279;28;797;-67
2022/11/27 07:51:22;;;;;;;;;;;;;;;;;;5033354;28;813;-67
2022/11/27 07:53:50;;;;;;;;;;;;;;;;;;5032423;28;864;-67
2022/11/27 07:56:15;;;;;;;;;;;;;;;;;;5032038;28;1217;-67
2022/11/27 07:58:41;;;;;;;;;;;;;;;;;;5033156;28;833;-67
2022/11/27 08:01:07;;;;;;;;;;;;;;;;;;5032261;28;1208;-66
2022/11/27 08:03:32;;;;;;;;;;;;;;;;;;5033339;28;1906;-66
2022/11/27 08:05:57;;;;;;;;;;;;;;;;;;5032496;28;1299;-67
2022/11/27 08:08:23;;;;;;;;;;;;;;;;;;5032879;28;897;-66
2022/11/27 08:10:48;;;;;;;;;;;;;;;;;;5033616;28;1086;-67
2022/11/27 08:13:13;;;;;;;;;;;;;;;;;;5032763;28;884;-67
2022/11/27 08:15:38;;;;;;;;;;;;;;;;;;5031252;28;1303;-67
2022/11/27 08:18:04;;;;;;;;;;;;;;;;;;5033141;28;813;-67
2022/11/27 08:20:29;;;;;;;;;;;;;;;;;;5032012;28;742;-66
2022/11/27 08:22:54;;;;;;;;;;;;;;;;;;5032955;28;1969;-67
2022/11/27 08:25:20;;;;;;;;;;;;;;;;;;5031422;28;881;-67
2022/11/27 08:27:47;;;;;;;;;;;;;;;;;;5047188;28;1815;-67
2022/11/27 08:30:13;;;;;;;;;;;;;;;;;;5031651;28;1247;-67
2022/11/27 08:32:39;;;;;;;;;;;;;;;;;;5030504;28;1252;-68
2022/11/27 08:35:04;;;;;;;;;;;;;;;;;;5031148;28;1007;-67
2022/11/27 08:37:30;;;;;;;;;;;;;;;;;;5030670;28;1302;-66
2022/11/27 08:39:55;;;;;;;;;;;;;;;;;;5032560;28;853;-67
2022/11/27 08:42:20;;;;;;;;;;;;;;;;;;5032395;28;1898;-67
2022/11/27 08:44:45;;;;;;;;;;;;;;;;;;5030025;28;1330;-67
2022/11/27 08:47:11;;;;;;;;;;;;;;;;;;5030889;28;1359;-67
2022/11/27 08:49:36;;;;;;;;;;;;;;;;;;5031489;28;810;-67
2022/11/27 08:52:01;;;;;;;;;;;;;;;;;;5032189;28;814;-67
2022/11/27 08:54:26;;;;;;;;;;;;;;;;;;5030088;28;1225;-67
2022/11/27 08:56:52;;;;;;;;;;;;;;;;;;5046820;28;1143;-69
2022/11/27 08:59:17;;;;;;;;;;;;;;;;;;5032534;28;963;-69
2022/11/27 09:01:42;;;;;;;;;;;;;;;;;;5030284;28;996;-69
2022/11/27 09:04:07;;;;;;;;;;;;;;;;;;5030472;28;1969;-68
2022/11/27 09:06:35;;;;;;;;;;;;;;;;;;5030884;28;825;-68
2022/11/27 09:09:03;;;;;;;;;;;;;;;;;;5030907;28;818;-68
2022/11/27 09:11:29;;;;;;;;;;;;;;;;;;5031519;28;892;-69
2022/11/27 09:13:55;;;;;;;;;;;;;;;;;;5031615;28;809;-69
2022/11/27 09:16:21;;;;;;;;;;;;;;;;;;5031870;28;821;-69
2022/11/27 09:18:47;;;;;;;;;;;;;;;;;;5030887;28;833;-70
2022/11/27 09:21:13;;;;;;;;;;;;;;;;;;5046725;28;1306;-68
2022/11/27 09:23:39;;;;;;;;;;;;;;;;;;5046560;28;1969;-68
2022/11/27 09:26:06;;;;;;;;;;;;;;;;;;5030064;28;1168;-68
2022/11/27 09:28:31;;;;;;;;;;;;;;;;;;5031795;28;936;-69
2022/11/27 09:30:57;;;;;;;;;;;;;;;;;;5032395;28;829;-69
2022/11/27 09:33:23;;;;;;;;;;;;;;;;;;5032407;28;783;-68
2022/11/27 09:35:49;;;;;;;;;;;;;;;;;;5031773;28;597;-68
2022/11/27 09:38:14;;;;;;;;;;;;;;;;;;5032133;28;889;-68
2022/11/27 09:40:50;;;;;;;;;;;;;;;;;;5029613;28;1207;-68
2022/11/27 09:43:16;;;;;;;;;;;;;;;;;;5030869;28;1886;-67
2022/11/27 09:45:44;;;;;;;;;;;;;;;;;;5030190;28;971;-67
2022/11/27 09:48:17;;;;;;;;;;;;;;;;;;5031365;28;837;-67
2022/11/27 09:50:49;;;;;;;;;;;;;;;;;;5030088;28;860;-67
2022/11/27 09:53:20;;;;;;;;;;;;;;;;;;5031059;28;848;-68
2022/11/27 09:55:48;;;;;;;;;;;;;;;;;;5030014;28;888;-67
2022/11/27 09:58:13;;;;;;;;;;;;;;;;;;5031033;28;845;-67
2022/11/27 10:00:38;;;;;;;;;;;;;;;;;;5030149;28;1070;-68
2022/11/27 10:03:06;;;;;;;;;;;;;;;;;;5029326;28;1902;-68
2022/11/27 10:05:35;;;;;;;;;;;;;;;;;;5029480;28;1264;-68
2022/11/27 10:08:00;;;;;;;;;;;;;;;;;;5046014;28;1211;-68
2022/11/27 10:10:33;;;;;;;;;;;;;;;;;;5030763;28;1000;-68
2022/11/27 10:13:01;;;;;;;;;;;;;;;;;;5029060;28;1320;-67
2022/11/27 10:15:32;;;;;;;;;;;;;;;;;;5030735;28;885;-67
2022/11/27 10:18:03;;;;;;;;;;;;;;;;;;5030368;28;849;-68
2022/11/27 10:20:48;;;;;;;;;;;;;;;;;;5045750;28;1310;-68
2022/11/27 10:23:17;;;;;;;;;;;;;;;;;;5028763;28;1902;-67
2022/11/27 10:25:46;;;;;;;;;;;;;;;;;;5029701;28;900;-68
2022/11/27 10:28:14;;;;;;;;;;;;;;;;;;5030557;28;849;-68
2022/11/27 10:30:49;;;;;;;;;;;;;;;;;;5029436;28;1046;-69
2022/11/27 10:33:21;;;;;;;;;;;;;;;;;;5028705;28;1204;-68
2022/11/27 10:35:47;;;;;;;;;;;;;;;;;;5029599;28;900;-68
2022/11/27 10:38:15;;;;;;;;;;;;;;;;;;5030093;28;829;-68
2022/11/27 10:40:49;;;;;;;;;;;;;;;;;;5029525;28;833;-67
2022/11/27 10:43:17;;;;;;;;;;;;;;;;;;5028555;28;1902;-68
2022/11/27 10:45:45;;;;;;;;;;;;;;;;;;5029237;28;1029;-68
2022/11/27 10:48:12;;;;;;;;;;;;;;;;;;5029961;28;841;-68
2022/11/27 10:50:38;;;;;;;;;;;;;;;;;;5028375;28;1396;-68
2022/11/27 10:53:08;;;;;;;;;;;;;;;;;;5028684;28;1339;-68
2022/11/27 10:55:40;;;;;;;;;;;;;;;;;;5027932;28;1526;-68
2022/11/27 10:58:09;;;;;;;;;;;;;;;;;;5029996;28;1082;-67
2022/11/27 11:00:35;;;;;;;;;;;;;;;;;;5029418;28;889;-68
2022/11/27 11:03:02;;;;;;;;;;;;;;;;;;5029596;28;1980;-67
2022/11/27 11:05:28;;;;;;;;;;;;;;;;;;5030859;28;1196;-68
2022/11/27 11:08:03;;;;;;;;;;;;;;;;;;5029551;28;1236;-68
2022/11/27 11:10:36;;;;;;;;;;;;;;;;;;5030694;28;896;-67
2022/11/27 11:13:10;;;;;;;;;;;;;;;;;;5029412;28;1243;-68
2022/11/27 11:15:50;;;;;;;;;;;;;;;;;;5028697;28;1200;-68
2022/11/27 11:18:16;;;;;;;;;;;;;;;;;;5034031;28;912;-67
2022/11/27 11:20:45;;;;;;;;;;;;;;;;;;5034141;28;904;-68
2022/11/27 11:23:19;;;;;;;;;;;;;;;;;;5033683;28;1938;-68
2022/11/27 11:25:50;;;;;;;;;;;;;;;;;;5033504;28;970;-67
2022/11/27 11:28:17;;;;;;;;;;;;;;;;;;5048684;28;1153;-68
2022/11/27 11:30:51;;;;;;;;;;;;;;;;;;5048245;28;1168;-68
2022/11/27 11:33:16;;;;;;;;;;;;;;;;;;5033779;28;832;-68
2022/11/27 11:35:41;;;;;;;;;;;;;;;;;;5033258;28;869;-69
2022/11/27 11:38:14;;;;;;;;;;;;;;;;;;5033426;28;880;-68
2022/11/27 11:40:43;;;;;;;;;;;;;;;;;;5033099;28;809;-67
2022/11/27 11:43:25;;;;;;;;;;;;;;;;;;5033536;28;1902;-68
2022/11/27 11:45:50;;;;;;;;;;;;;;;;;;5047945;28;1271;-68
2022/11/27 11:48:15;;;;;;;;;;;;;;;;;;5048977;28;1146;-67
2022/11/27 11:50:52;;;;;;;;;;;;;;;;;;5032989;28;920;-68
2022/11/27 11:53:26;;;;;;;;;;;;;;;;;;5033584;28;892;-68
2022/11/27 11:55:54;;;;;;;;;;;;;;;;;;5030933;28;1342;-68
2022/11/27 11:58:26;;;;;;;;;;;;;;;;;;5032874;28;782;-68
2022/11/27 12:01:14;;;;;;;;;;;;;;;;;;5032413;28;893;-68
2022/11/27 12:03:58;;;;;;;;;;;;;;;;;;5004029;28;1965;-68
2022/11/27 12:06:26;;;;;;;;;;;;;;;;;;5031794;28;1128;-68
2022/11/27 12:09:00;;;;;;;;;;;;;;;;;;5032207;28;865;-69
2022/11/27 12:11:34;;;;;;;;;;;;;;;;;;5031637;28;1235;-68
2022/11/27 12:14:14;;;;;;;;;;;;;;;;;;5032603;28;845;-68
2022/11/27 12:16:44;;;;;;;;;;;;;;;;;;5030851;28;1320;-68
2022/11/27 12:19:10;;;;;;;;;;;;;;;;;;5032332;28;908;-68
2022/11/27 12:21:41;;;;;;;;;;;;;;;;;;5030623;28;1236;-68
2022/11/27 12:24:09;;;;;;;;;;;;;;;;;;5032404;28;1958;-68
2022/11/27 12:26:34;;;;;;;;;;;;;;;;;;5031990;28;892;-67
2022/11/27 12:29:18;;;;;;;;;;;;;;;;;;5030886;28;873;-68
2022/11/27 12:31:59;;;;;;;;;;;;;;;;;;5031367;28;1236;-68
2022/11/27 12:34:24;;;;;;;;;;;;;;;;;;5033203;28;912;-67
2022/11/27 12:37:08;;;;;;;;;;;;;;;;;;5031500;28;1241;-68
2022/11/27 12:39:33;;;;;;;;;;;;;;;;;;5032697;28;983;-67
2022/11/27 12:42:18;;;;;;;;;;;;;;;;;;5031634;28;1255;-68
2022/11/27 12:44:52;;;;;;;;;;;;;;;;;;5032557;28;865;-67
2022/11/27 12:47:46;;;;;;;;;;;;;;;;;;5030930;28;1231;-68
2022/11/27 12:50:26;;;;;;;;;;;;;;;;;;5019089;28;1086;-68
2022/11/27 12:53:13;;;;;;;;;;;;;;;;;;5031525;28;856;-68
2022/11/27 12:55:42;;;;;;;;;;;;;;;;;;5007458;28;1324;-68
2022/11/27 12:58:20;;;;;;;;;;;;;;;;;;5047235;28;1163;-68
2022/11/27 13:00:47;;;;;;;;;;;;;;;;;;5029820;28;1216;-68
2022/11/27 13:03:20;;;;;;;;;;;;;;;;;;5031502;28;1959;-68
2022/11/27 13:05:52;;;;;;;;;;;;;;;;;;5030584;28;1197;-67
2022/11/27 13:08:21;;;;;;;;;;;;;;;;;;5030025;28;1290;-68
2022/11/27 13:10:50;;;;;;;;;;;;;;;;;;5031419;28;853;-67
2022/11/27 13:13:22;;;;;;;;;;;;;;;;;;5031499;28;857;-67
2022/11/27 13:16:02;;;;;;;;;;;;;;;;;;5030782;28;823;-68
2022/11/27 13:18:42;;;;;;;;;;;;;;;;;;5031630;28;841;-68
2022/11/27 13:21:13;;;;;;;;;;;;;;;;;;5046598;28;1125;-68
2022/11/27 13:23:39;;;;;;;;;;;;;;;;;;5030598;28;1914;-68
2022/11/27 13:26:06;;;;;;;;;;;;;;;;;;5013170;28;1225;-68
2022/11/27 13:28:42;;;;;;;;;;;;;;;;;;5013745;28;1260;-68
2022/11/27 13:31:13;;;;;;;;;;;;;;;;;;5030070;28;1173;-68
2022/11/27 13:33:41;;;;;;;;;;;;;;;;;;5029834;28;1324;-68
2022/11/27 13:36:15;;;;;;;;;;;;;;;;;;5032161;28;919;-68
2022/11/27 13:38:41;;;;;;;;;;;;;;;;;;5030443;28;1415;-68
2022/11/27 13:41:07;;;;;;;;;;;;;;;;;;5031504;28;895;-68
2022/11/27 13:43:32;;;;;;;;;;;;;;;;;;5030043;28;1952;-68
2022/11/27 13:46:06;;;;;;;;;;;;;;;;;;5030886;28;864;-68
2022/11/27 13:48:36;;;;;;;;;;;;;;;;;;5031288;28;821;-68
2022/11/27 13:51:02;;;;;;;;;;;;;;;;;;5030766;28;854;-69
2022/11/27 13:53:32;;;;;;;;;;;;;;;;;;5046405;28;1295;-68
2022/11/27 13:55:58;;;;;;;;;;;;;;;;;;5031638;28;872;-68
2022/11/27 13:58:42;;;;;;;;;;;;;;;;;;5029991;28;1145;-68
2022/11/27 14:01:16;;;;;;;;;;;;;;;;;;5059205;28;1184;-68
2022/11/27 14:03:41;;;;;;;;;;;;;;;;;;5029572;28;1894;-68
2022/11/27 14:06:14;;;;;;;;;;;;;;;;;;5029894;28;1102;-68
2022/11/27 14:08:47;;;;;;;;;;;;;;;;;;5029221;28;1192;-68
2022/11/27 14:11:13;;;;;;;;;;;;;;;;;;5030699;28;829;-68
2022/11/27 14:13:44;;;;;;;;;;;;;;;;;;5030246;28;1042;-68
2022/11/27 14:16:32;;;;;;;;;;;;;;;;;;5028928;28;1288;-68
2022/11/27 14:18:59;;;;;;;;;;;;;;;;;;5030649;28;755;-68
2022/11/27 14:21:40;;;;;;;;;;;;;;;;;;5030484;28;790;-68
2022/11/27 14:24:24;;;;;;;;;;;;;;;;;;5045351;28;1957;-68
2022/11/27 14:26:49;;;;;;;;;;;;;;;;;;5028295;28;1220;-68
2022/11/27 14:29:15;;;;;;;;;;;;;;;;;;5028575;28;1335;-68
2022/11/27 14:31:41;;;;;;;;;;;;;;;;;;5030127;28;912;-68
2022/11/27 14:34:23;;;;;;;;;;;;;;;;;;5030732;28;774;-68
2022/11/27 14:36:50;;;;;;;;;;;;;;;;;;5029876;28;1066;-68
2022/11/27 14:39:35;;;;;;;;;;;;;;;;;;5030080;28;802;-68
2022/11/27 14:42:05;;;;;;;;;;;;;;;;;;5030636;28;944;-68
2022/11/27 14:44:31;;;;;;;;;;;;;;;;;;5030301;28;1887;-68
2022/11/27 14:46:58;;;;;;;;;;;;;;;;;;5044923;28;1129;-68
2022/11/27 14:49:25;;;;;;;;;;;;;;;;;;5030222;28;826;-68
2022/11/27 14:51:51;;;;;;;;;;;;;;;;;;5032136;28;845;-69
2022/11/27 14:54:36;;;;;;;;;;;;;;;;;;5034955;28;1355;-68
2022/11/27 14:57:02;;;;;;;;;;;;;;;;;;5036964;28;955;-69
2022/11/27 14:59:28;;;;;;;;;;;;;;;;;;5034981;28;1220;-68
2022/11/27 15:01:57;;;;;;;;;;;;;;;;;;5035893;28;833;-69
2022/11/27 15:04:26;;;;;;;;;;;;;;;;;;5034639;28;1918;-68
2022/11/27 15:06:51;;;;;;;;;;;;;;;;;;5036152;28;1003;-68
2022/11/27 15:09:18;;;;;;;;;;;;;;;;;;5036369;28;912;-68
2022/11/27 15:11:43;;;;;;;;;;;;;;;;;;5051012;28;1277;-67
2022/11/27 15:14:14;;;;;;;;;;;;;;;;;;5036316;28;873;-67
2022/11/27 15:16:44;;;;;;;;;;;;;;;;;;5051585;28;1228;-67
2022/11/27 15:19:15;;;;;;;;;;;;;;;;;;5051972;28;1239;-67
2022/11/27 15:21:41;;;;;;;;;;;;;;;;;;5036226;28;860;-67
2022/11/27 15:24:26;;;;;;;;;;;;;;;;;;5037646;28;1902;-68
2022/11/27 15:26:51;;;;;;;;;;;;;;;;;;5036386;28;1022;-68
2022/11/27 15:29:35;;;;;;;;;;;;;;;;;;5037136;28;916;-67
2022/11/27 15:32:01;;;;;;;;;;;;;;;;;;5036952;28;842;-68
2022/11/27 15:34:29;;;;;;;;;;;;;;;;;;5036073;28;844;-67
2022/11/27 15:37:00;;;;;;;;;;;;;;;;;;5035545;28;983;-68
2022/11/27 15:39:58;;;;;;;;;;;;;;;;;;5035746;28;816;-67
2022/11/27 15:42:24;;;;;;;;;;;;;;;;;;5007101;28;1893;-67
2022/11/27 15:44:52;;;;;;;;;;;;;;;;;;5051331;28;1365;-67
2022/11/27 15:47:27;;;;;;;;;;;;;;;;;;5036165;28;1000;-67
2022/11/27 15:49:53;;;;;;;;;;;;;;;;;;5036290;28;798;-67
2022/11/27 15:52:18;;;;;;;;;;;;;;;;;;5035940;28;825;-68
2022/11/27 15:54:44;;;;;;;;;;;;;;;;;;5035515;28;939;-68
2022/11/27 15:57:09;;;;;;;;;;;;;;;;;;5035854;28;817;-68
2022/11/27 15:59:34;;;;;;;;;;;;;;;;;;5033933;28;1051;-67
2022/11/27 16:02:00;;;;;;;;;;;;;;;;;;5034669;28;913;-68
2022/11/27 16:04:25;;;;;;;;;;;;;;;;;;5032505;28;1952;-67
2022/11/27 16:06:50;;;;;;;;;;;;;;;;;;5047829;28;1514;-68
2022/11/27 16:09:15;;;;;;;;;;;;;;;;;;5047999;28;1415;-67
2022/11/27 16:11:41;;;;;;;;;;;;;;;;;;5030941;28;1377;-67
2022/11/27 16:14:06;;;;;;;;;;;;;;;;;;5032739;28;794;-67
2022/11/27 16:16:32;;;;;;;;;;;;;;;;;;5030953;28;1339;-67
2022/11/27 16:18:59;;;;;;;;;;;;;;;;;;5047776;28;1217;-68
2022/11/27 16:21:25;;;;;;;;;;;;;;;;;;5031043;28;1228;-67
2022/11/27 16:23:50;;;;;;;;;;;;;;;;;;5032259;28;1906;-67
2022/11/27 16:26:15;;;;;;;;;;;;;;;;;;5031539;28;794;-67
2022/11/27 16:28:41;;;;;;;;;;;;;;;;;;5032257;28;1019;-67
2022/11/27 16:31:07;;;;;;;;;;;;;;;;;;5032729;28;857;-67
2022/11/27 16:33:33;;;;;;;;;;;;;;;;;;5032415;28;901;-67
2022/11/27 16:36:05;;;;;;;;;;;;;;;;;;5032111;28;952;-68
2022/11/27 16:38:30;;;;;;;;;;;;;;;;;;5032922;28;854;-67
2022/11/27 16:40:59;;;;;;;;;;;;;;;;;;5033029;28;1003;-67
2022/11/27 16:43:24;;;;;;;;;;;;;;;;;;5033600;28;1949;-67
2022/11/27 16:45:49;;;;;;;;;;;;;;;;;;5033182;28;1047;-68
2022/11/27 16:48:15;;;;;;;;;;;;;;;;;;5033841;28;821;-67
2022/11/27 16:50:40;;;;;;;;;;;;;;;;;;5032215;28;1348;-67
2022/11/27 16:53:06;;;;;;;;;;;;;;;;;;5032582;28;814;-68
2022/11/27 16:55:31;;;;;;;;;;;;;;;;;;5031961;28;992;-67
2022/11/27 16:57:56;;;;;;;;;;;;;;;;;;5032125;28;805;-67
2022/11/27 17:00:22;;;;;;;;;;;;;;;;;;5031872;28;1485;-67
2022/11/27 17:02:47;;;;;;;;;;;;;;;;;;5032784;28;1898;-67
2022/11/27 17:05:12;;;;;;;;;;;;;;;;;;5031999;28;1097;-67
2022/11/27 17:07:37;;;;;;;;;;;;;;;;;;5031461;28;1016;-67
2022/11/27 17:10:03;;;;;;;;;;;;;;;;;;5032243;28;947;-67
2022/11/27 17:12:28;;;;;;;;;;;;;;;;;;5032931;28;840;-67
2022/11/27 17:14:53;;;;;;;;;;;;;;;;;;5030909;28;1413;-67
2022/11/27 17:17:19;;;;;;;;;;;;;;;;;;5030561;28;1208;-67